createdAt,value
2023-01-20T00:01:36.086Z,100.00
2023-01-20T00:04:03.354Z,100.00
2023-01-20T00:06:29.971Z,100.00
2023-01-20T00:09:00.569Z,100.00
2023-01-20T00:11:28.289Z,100.00
2023-01-20T00:13:56.795Z,100.00
2023-01-20T00:16:24.584Z,100.00
2023-01-20T00:18:51.642Z,100.00
2023-01-20T00:21:18.735Z,100.00
2023-01-20T00:23:46.568Z,100.00
2023-01-20T00:26:19.092Z,100.00
2023-01-20T00:28:46.509Z,100.00
2023-01-20T00:31:22.421Z,100.00
2023-01-20T00:33:50.803Z,100.00
2023-01-20T00:36:19.222Z,100.00
2023-01-20T00:38:47.130Z,100.00
2023-01-20T00:41:13.605Z,100.00
2023-01-20T00:43:40.613Z,100.00
2023-01-20T00:46:08.046Z,100.00
2023-01-20T00:48:35.221Z,100.00
2023-01-20T00:51:02.394Z,100.00
2023-01-20T00:53:29.115Z,100.00
2023-01-20T00:55:55.575Z,100.00
2023-01-20T00:58:22.460Z,100.00
2023-01-20T01:00:50.674Z,100.00
2023-01-20T01:03:17.623Z,100.00
2023-01-20T01:05:44.587Z,100.00
2023-01-20T01:08:11.770Z,100.00
2023-01-20T01:10:38.478Z,100.00
2023-01-20T01:13:05.598Z,100.00
2023-01-20T01:15:32.621Z,100.00
2023-01-20T01:17:59.993Z,100.00
2023-01-20T01:20:28.027Z,100.00
2023-01-20T01:22:55.150Z,100.00
2023-01-20T01:25:21.758Z,100.00
2023-01-20T01:27:48.270Z,100.00
2023-01-20T01:30:14.802Z,100.00
2023-01-20T01:32:41.269Z,100.00
2023-01-20T01:35:08.064Z,100.00
2023-01-20T01:37:35.031Z,100.00
2023-01-20T01:40:01.467Z,100.00
2023-01-20T01:42:28.485Z,100.00
2023-01-20T01:45:10.510Z,100.00
2023-01-20T01:47:40.137Z,100.00
2023-01-20T01:50:09.013Z,100.00
2023-01-20T01:52:35.667Z,100.00
2023-01-20T01:55:03.144Z,100.00
2023-01-20T01:57:31.835Z,100.00
2023-01-20T01:59:58.331Z,100.00
2023-01-20T02:02:25.000Z,100.00
2023-01-20T02:04:51.621Z,100.00
2023-01-20T02:07:20.739Z,100.00
2023-01-20T02:09:47.254Z,100.00
2023-01-20T02:12:17.416Z,100.00
2023-01-20T02:14:47.355Z,100.00
2023-01-20T02:17:46.178Z,100.00
2023-01-20T02:20:34.746Z,100.00
2023-01-20T02:23:13.296Z,100.00
2023-01-20T02:26:17.512Z,100.00
2023-01-20T02:28:52.950Z,100.00
2023-01-20T02:31:47.410Z,100.00
2023-01-20T02:34:27.144Z,100.00
2023-01-20T02:36:58.626Z,100.00
2023-01-20T02:39:48.639Z,100.00
2023-01-20T02:42:23.372Z,100.00
2023-01-20T02:44:59.297Z,100.00
2023-01-20T02:47:34.887Z,100.00
2023-01-20T02:50:16.030Z,100.00
2023-01-20T02:52:45.836Z,100.00
2023-01-20T02:55:19.581Z,100.00
2023-01-20T02:57:54.515Z,100.00
2023-01-20T03:00:25.579Z,100.00
2023-01-20T03:02:54.077Z,100.00
2023-01-20T03:05:33.114Z,100.00
2023-01-20T03:08:02.837Z,100.00
2023-01-20T03:10:32.531Z,100.00
2023-01-20T03:13:15.449Z,100.00
2023-01-20T03:16:07.646Z,100.00
2023-01-20T03:18:35.201Z,100.00
2023-01-20T03:21:04.013Z,100.00
2023-01-20T03:23:35.999Z,100.00
2023-01-20T03:26:07.341Z,100.00
2023-01-20T03:28:34.709Z,100.00
2023-01-20T03:31:06.089Z,100.00
2023-01-20T03:33:33.309Z,100.00
2023-01-20T03:35:59.760Z,100.00
2023-01-20T03:38:26.301Z,100.00
2023-01-20T03:41:10.746Z,100.00
2023-01-20T03:43:42.670Z,100.00
2023-01-20T03:46:20.103Z,100.00
2023-01-20T03:49:16.174Z,100.00
2023-01-20T03:52:00.426Z,100.00
2023-01-20T03:54:35.102Z,100.00
2023-01-20T03:57:08.303Z,100.00
2023-01-20T03:59:38.730Z,100.00
2023-01-20T04:02:07.922Z,100.00
2023-01-20T04:04:37.956Z,100.00
2023-01-20T04:07:06.881Z,100.00
2023-01-20T04:09:38.946Z,100.00
2023-01-20T04:12:05.598Z,100.00
2023-01-20T04:14:32.275Z,100.00
2023-01-20T04:16:59.238Z,100.00
2023-01-20T04:19:26.652Z,100.00
2023-01-20T04:22:12.516Z,100.00
2023-01-20T04:24:51.155Z,100.00
2023-01-20T04:27:17.614Z,100.00
2023-01-20T04:29:44.257Z,100.00
2023-01-20T04:32:12.085Z,100.00
2023-01-20T04:34:38.870Z,100.00
2023-01-20T04:37:05.431Z,100.00
2023-01-20T04:39:31.856Z,100.00
2023-01-20T04:41:58.442Z,100.00
2023-01-20T04:44:25.035Z,100.00
2023-01-20T04:46:55.710Z,100.00
2023-01-20T04:49:22.345Z,100.00
2023-01-20T04:51:48.872Z,100.00
2023-01-20T04:54:15.316Z,100.00
2023-01-20T04:56:41.801Z,100.00
2023-01-20T04:59:08.414Z,100.00
2023-01-20T05:01:34.995Z,100.00
2023-01-20T05:04:01.705Z,100.00
2023-01-20T05:06:28.226Z,100.00
2023-01-20T05:08:54.706Z,100.00
2023-01-20T05:11:21.192Z,100.00
2023-01-20T05:13:47.659Z,100.00
2023-01-20T05:16:14.240Z,100.00
2023-01-20T05:18:41.064Z,100.00
2023-01-20T05:21:08.730Z,100.00
2023-01-20T05:23:35.401Z,100.00
2023-01-20T05:26:01.875Z,100.00
2023-01-20T05:28:28.342Z,100.00
2023-01-20T05:30:55.044Z,100.00
2023-01-20T05:33:21.607Z,100.00
2023-01-20T05:35:48.032Z,100.00
2023-01-20T05:38:14.555Z,100.00
2023-01-20T05:40:41.123Z,100.00
2023-01-20T05:43:07.561Z,100.00
2023-01-20T05:45:33.995Z,100.00
2023-01-20T05:48:00.889Z,100.00
2023-01-20T05:50:28.556Z,100.00
2023-01-20T05:52:54.975Z,100.00
2023-01-20T05:55:21.446Z,100.00
2023-01-20T05:57:47.937Z,100.00
2023-01-20T06:00:14.892Z,100.00
2023-01-20T06:02:41.981Z,100.00
2023-01-20T06:05:08.751Z,100.00
2023-01-20T06:07:35.189Z,100.00
2023-01-20T06:10:02.469Z,100.00
2023-01-20T06:12:28.899Z,100.00
2023-01-20T06:14:55.354Z,100.00
2023-01-20T06:17:21.853Z,100.00
2023-01-20T06:19:48.306Z,100.00
2023-01-20T06:22:15.438Z,100.00
2023-01-20T06:24:41.990Z,100.00
2023-01-20T06:27:09.609Z,100.00
2023-01-20T06:29:36.403Z,100.00
2023-01-20T06:32:03.097Z,100.00
2023-01-20T06:34:29.534Z,100.00
2023-01-20T06:36:56.639Z,100.00
2023-01-20T06:39:23.092Z,100.00
2023-01-20T06:41:49.493Z,100.00
2023-01-20T06:44:16.733Z,100.00
2023-01-20T06:46:43.448Z,100.00
2023-01-20T06:49:09.973Z,100.00
2023-01-20T06:51:36.403Z,100.00
2023-01-20T06:54:02.904Z,100.00
2023-01-20T06:56:29.393Z,100.00
2023-01-20T06:58:56.078Z,100.00
2023-01-20T07:01:26.834Z,100.00
2023-01-20T07:03:54.229Z,100.00
2023-01-20T07:06:39.596Z,100.00
2023-01-20T07:09:09.102Z,100.00
2023-01-20T07:11:35.848Z,100.00
2023-01-20T07:14:03.550Z,100.00
2023-01-20T07:16:30.143Z,100.00
2023-01-20T07:18:57.189Z,100.00
2023-01-20T07:21:26.247Z,100.00
2023-01-20T07:23:53.079Z,100.00
2023-01-20T07:26:22.027Z,100.00
2023-01-20T07:28:48.860Z,100.00
2023-01-20T07:31:18.488Z,100.00
2023-01-20T07:33:45.230Z,100.00
2023-01-20T07:36:13.279Z,100.00
2023-01-20T07:38:40.002Z,100.00
2023-01-20T07:41:11.571Z,100.00
2023-01-20T07:43:38.387Z,100.00
2023-01-20T07:46:05.430Z,100.00
2023-01-20T07:48:33.217Z,100.00
2023-01-20T07:51:03.033Z,100.00
2023-01-20T07:53:30.409Z,100.00
2023-01-20T07:55:59.843Z,100.00
2023-01-20T07:58:26.272Z,100.00
2023-01-20T08:00:53.386Z,100.00
2023-01-20T08:03:19.880Z,100.00
2023-01-20T08:05:46.303Z,100.00
2023-01-20T08:08:12.738Z,100.00
2023-01-20T08:10:39.374Z,100.00
2023-01-20T08:13:05.903Z,100.00
2023-01-20T08:15:32.300Z,100.00
2023-01-20T08:17:59.593Z,100.00
2023-01-20T08:20:26.121Z,100.00
2023-01-20T08:22:53.137Z,100.00
2023-01-20T08:25:19.550Z,100.00
2023-01-20T08:27:48.110Z,100.00
2023-01-20T08:30:14.793Z,100.00
2023-01-20T08:32:41.344Z,100.00
2023-01-20T08:35:08.134Z,100.00
2023-01-20T08:37:36.978Z,100.00
2023-01-20T08:40:06.721Z,100.00
2023-01-20T08:42:33.169Z,100.00
2023-01-20T08:44:59.691Z,100.00
2023-01-20T08:47:26.395Z,100.00
2023-01-20T08:49:54.005Z,100.00
2023-01-20T08:52:20.486Z,100.00
2023-01-20T08:54:46.887Z,100.00
2023-01-20T08:57:14.931Z,100.00
2023-01-20T08:59:41.376Z,100.00
2023-01-20T09:02:10.523Z,100.00
2023-01-20T09:04:37.914Z,100.00
2023-01-20T09:07:05.293Z,100.00
2023-01-20T09:09:32.167Z,100.00
2023-01-20T09:11:58.625Z,100.00
2023-01-20T09:14:25.641Z,100.00
2023-01-20T09:16:52.150Z,100.00
2023-01-20T09:19:18.677Z,100.00
2023-01-20T09:21:45.206Z,100.00
2023-01-20T09:24:11.794Z,100.00
2023-01-20T09:26:38.494Z,100.00
2023-01-20T09:29:10.409Z,100.00
2023-01-20T09:31:52.167Z,100.00
2023-01-20T09:34:24.015Z,100.00
2023-01-20T09:36:52.389Z,100.00
2023-01-20T09:39:37.716Z,100.00
2023-01-20T09:42:43.337Z,100.00
2023-01-20T09:45:28.138Z,100.00
2023-01-20T09:48:42.027Z,100.00
2023-01-20T09:51:37.699Z,100.00
2023-01-20T09:54:14.472Z,100.00
2023-01-20T09:56:46.573Z,100.00
2023-01-20T09:59:24.840Z,100.00
2023-01-20T10:01:56.812Z,100.00
2023-01-20T10:04:39.662Z,100.00
2023-01-20T10:07:15.199Z,100.00
2023-01-20T10:09:49.957Z,100.00
2023-01-20T10:12:23.016Z,100.00
2023-01-20T10:14:55.516Z,100.00
2023-01-20T10:17:29.103Z,100.00
2023-01-20T10:20:07.130Z,100.00
2023-01-20T10:22:36.533Z,100.00
2023-01-20T10:25:12.236Z,100.00
2023-01-20T10:27:50.091Z,100.00
2023-01-20T10:30:17.920Z,100.00
2023-01-20T10:32:53.868Z,100.00
2023-01-20T10:35:26.836Z,100.00
2023-01-20T10:37:55.631Z,98.96
2023-01-20T10:40:40.632Z,98.68
2023-01-20T10:43:16.099Z,98.59
2023-01-20T10:46:01.215Z,98.46
2023-01-20T10:48:40.167Z,98.32
2023-01-20T10:51:18.298Z,98.36
2023-01-20T10:53:44.705Z,97.86
2023-01-20T10:56:42.743Z,96.85
2023-01-20T10:59:17.827Z,96.98
2023-01-20T11:01:56.258Z,96.72
2023-01-20T11:04:26.129Z,97.16
2023-01-20T11:06:56.206Z,97.20
2023-01-20T11:09:32.588Z,97.27
2023-01-20T11:12:00.556Z,96.67
2023-01-20T11:14:27.138Z,97.34
2023-01-20T11:17:01.921Z,96.15
2023-01-20T11:20:07.665Z,95.52
2023-01-20T11:22:37.426Z,95.24
2023-01-20T11:25:05.659Z,95.11
2023-01-20T11:27:45.774Z,94.99
2023-01-20T11:30:30.985Z,94.64
2023-01-20T11:33:18.943Z,94.75
2023-01-20T11:35:58.595Z,94.13
2023-01-20T11:38:28.609Z,93.63
2023-01-20T11:40:57.311Z,93.52
2023-01-20T11:43:33.907Z,93.66
2023-01-20T11:46:13.078Z,93.77
2023-01-20T11:48:39.581Z,94.36
2023-01-20T11:51:20.805Z,94.84
2023-01-20T11:53:47.653Z,94.84
2023-01-20T11:56:21.305Z,93.97
2023-01-20T11:58:58.445Z,93.66
2023-01-20T12:01:27.907Z,93.51
2023-01-20T12:04:11.765Z,93.88
2023-01-20T12:07:04.667Z,93.48
2023-01-20T12:09:38.392Z,92.83
2023-01-20T12:12:12.936Z,92.74
2023-01-20T12:14:48.340Z,92.77
2023-01-20T12:17:29.755Z,92.58
2023-01-20T12:20:19.748Z,92.18
2023-01-20T12:23:01.484Z,92.69
2023-01-20T12:25:36.942Z,92.28
2023-01-20T12:28:12.493Z,92.23
2023-01-20T12:30:47.511Z,91.65
2023-01-20T12:33:20.799Z,91.63
2023-01-20T12:36:03.231Z,91.87
2023-01-20T12:38:48.144Z,91.96
2023-01-20T12:41:28.521Z,92.69
2023-01-20T12:44:09.604Z,92.92
2023-01-20T12:46:46.208Z,92.74
2023-01-20T12:49:26.359Z,93.38
2023-01-20T12:52:17.968Z,93.46
2023-01-20T12:55:15.500Z,93.78
2023-01-20T12:58:08.450Z,93.71
2023-01-20T13:01:04.350Z,94.66
2023-01-20T13:03:52.678Z,93.98
2023-01-20T13:06:37.396Z,94.43
2023-01-20T13:09:18.862Z,94.84
2023-01-20T13:12:12.163Z,94.30
2023-01-20T13:14:58.861Z,94.50
2023-01-20T13:17:40.304Z,95.77
2023-01-20T13:20:22.194Z,94.17
2023-01-20T13:22:50.402Z,92.82
2023-01-20T13:25:18.944Z,92.50
2023-01-20T13:27:47.774Z,92.47
2023-01-20T13:30:37.025Z,94.83
2023-01-20T13:33:08.635Z,93.23
2023-01-20T13:35:49.674Z,93.34
2023-01-20T13:38:35.902Z,93.62
2023-01-20T13:41:05.943Z,93.29
2023-01-20T13:43:45.681Z,93.24
2023-01-20T13:46:13.555Z,93.32
2023-01-20T13:49:04.296Z,93.27
2023-01-20T13:51:36.748Z,96.73
2023-01-20T13:54:25.024Z,94.05
2023-01-20T13:56:52.494Z,92.98
2023-01-20T13:59:18.973Z,92.54
2023-01-20T14:01:45.473Z,92.38
2023-01-20T14:04:19.623Z,93.02
2023-01-20T14:06:52.521Z,92.71
2023-01-20T14:09:24.430Z,92.61
2023-01-20T14:11:52.810Z,97.18
2023-01-20T14:14:24.645Z,93.44
2023-01-20T14:16:52.036Z,93.52
2023-01-20T14:19:29.809Z,93.79
2023-01-20T14:21:59.170Z,93.80
2023-01-20T14:24:45.626Z,94.18
2023-01-20T14:27:23.958Z,94.18
2023-01-20T14:29:52.811Z,94.60
2023-01-20T14:32:25.428Z,95.23
2023-01-20T14:34:56.020Z,96.06
2023-01-20T14:37:22.383Z,96.84
2023-01-20T14:39:50.280Z,96.95
2023-01-20T14:42:22.319Z,97.27
2023-01-20T14:44:51.068Z,96.58
2023-01-20T14:47:19.250Z,96.33
2023-01-20T14:49:48.011Z,96.38
2023-01-20T14:52:28.450Z,97.00
2023-01-20T14:54:56.411Z,96.83
2023-01-20T14:57:30.820Z,97.14
2023-01-20T15:00:20.625Z,97.25
2023-01-20T15:03:09.978Z,96.82
2023-01-20T15:05:41.060Z,95.07
2023-01-20T15:08:18.835Z,94.17
2023-01-20T15:10:45.905Z,93.94
2023-01-20T15:13:27.260Z,93.78
2023-01-20T15:16:12.693Z,92.40
2023-01-20T15:18:40.150Z,91.96
2023-01-20T15:21:25.373Z,91.49
2023-01-20T15:23:52.715Z,91.39
2023-01-20T15:26:30.334Z,91.48
2023-01-20T15:28:58.254Z,91.54
2023-01-20T15:31:25.158Z,90.97
2023-01-20T15:33:51.661Z,90.36
2023-01-20T15:36:28.420Z,90.16
2023-01-20T15:38:55.482Z,90.22
2023-01-20T15:41:22.335Z,90.43
2023-01-20T15:43:51.099Z,90.02
2023-01-20T15:46:18.593Z,89.67
2023-01-20T15:48:45.633Z,89.20
2023-01-20T15:51:14.717Z,88.99
2023-01-20T15:53:41.447Z,89.00
2023-01-20T15:56:26.319Z,88.52
2023-01-20T15:58:52.837Z,88.03
2023-01-20T16:01:24.185Z,88.21
2023-01-20T16:03:51.900Z,87.92
2023-01-20T16:06:20.461Z,87.90
2023-01-20T16:08:49.836Z,87.89
2023-01-20T16:11:17.959Z,88.57
2023-01-20T16:13:45.095Z,88.16
2023-01-20T16:16:15.007Z,87.96
2023-01-20T16:18:41.792Z,87.70
2023-01-20T16:21:11.550Z,87.30
2023-01-20T16:23:38.397Z,87.55
2023-01-20T16:26:25.047Z,88.20
2023-01-20T16:28:53.195Z,87.32
2023-01-20T16:31:20.641Z,87.47
2023-01-20T16:33:47.175Z,88.27
2023-01-20T16:36:17.134Z,88.05
2023-01-20T16:38:44.192Z,88.17
2023-01-20T16:41:15.348Z,88.33
2023-01-20T16:43:42.035Z,87.45
2023-01-20T16:46:21.480Z,87.49
2023-01-20T16:48:48.392Z,87.94
2023-01-20T16:51:17.402Z,88.36
2023-01-20T16:53:43.924Z,87.94
2023-01-20T16:56:18.941Z,88.40
2023-01-20T16:58:49.937Z,88.06
2023-01-20T17:01:21.074Z,89.01
2023-01-20T17:03:47.976Z,88.98
2023-01-20T17:06:18.116Z,88.86
2023-01-20T17:08:50.254Z,89.42
2023-01-20T17:11:28.864Z,89.56
2023-01-20T17:13:56.072Z,89.60
2023-01-20T17:16:23.741Z,90.17
2023-01-20T17:18:51.915Z,90.43
2023-01-20T17:21:20.518Z,90.60
2023-01-20T17:23:55.433Z,90.65
2023-01-20T17:26:22.585Z,90.51
2023-01-20T17:28:53.553Z,91.09
2023-01-20T17:31:20.091Z,91.13
2023-01-20T17:33:47.117Z,91.93
2023-01-20T17:36:13.869Z,91.70
2023-01-20T17:38:40.285Z,91.77
2023-01-20T17:41:07.960Z,92.07
2023-01-20T17:43:37.134Z,92.40
2023-01-20T17:46:24.308Z,93.17
2023-01-20T17:48:51.404Z,92.12
2023-01-20T17:51:20.885Z,92.27
2023-01-20T17:53:48.131Z,92.40
2023-01-20T17:56:15.817Z,92.90
2023-01-20T17:58:43.917Z,92.99
2023-01-20T18:01:18.788Z,93.29
2023-01-20T18:03:46.900Z,93.70
2023-01-20T18:06:15.674Z,93.38
2023-01-20T18:08:42.896Z,93.97
2023-01-20T18:11:21.768Z,94.17
2023-01-20T18:13:55.058Z,94.34
2023-01-20T18:16:25.015Z,95.06
2023-01-20T18:18:51.535Z,95.51
2023-01-20T18:21:20.379Z,95.46
2023-01-20T18:23:48.406Z,95.29
2023-01-20T18:26:17.255Z,95.58
2023-01-20T18:28:44.243Z,95.79
2023-01-20T18:31:14.162Z,95.57
2023-01-20T18:33:47.394Z,96.15
2023-01-20T18:36:15.688Z,96.46
2023-01-20T18:38:45.359Z,96.62
2023-01-20T18:41:13.949Z,96.33
2023-01-20T18:43:41.508Z,96.68
2023-01-20T18:46:09.487Z,97.14
2023-01-20T18:48:40.785Z,96.54
2023-01-20T18:51:10.449Z,96.70
2023-01-20T18:53:38.058Z,96.76
2023-01-20T18:56:08.506Z,96.75
2023-01-20T18:58:36.161Z,96.96
2023-01-20T19:01:14.485Z,96.86
2023-01-20T19:03:41.434Z,96.81
2023-01-20T19:06:07.986Z,97.21
2023-01-20T19:08:34.660Z,97.13
2023-01-20T19:11:03.178Z,97.01
2023-01-20T19:13:30.307Z,97.77
2023-01-20T19:15:57.669Z,97.84
2023-01-20T19:18:24.467Z,98.37
2023-01-20T19:20:51.298Z,98.67
2023-01-20T19:23:17.824Z,99.00
2023-01-20T19:25:44.394Z,99.11
2023-01-20T19:28:12.106Z,99.57
2023-01-20T19:30:38.601Z,99.96
2023-01-20T19:33:05.419Z,99.72
2023-01-20T19:35:33.513Z,99.97
2023-01-20T19:38:00.045Z,99.94
2023-01-20T19:40:26.558Z,100.00
2023-01-20T19:42:53.065Z,100.00
2023-01-20T19:45:19.491Z,100.00
2023-01-20T19:47:46.333Z,100.00
2023-01-20T19:50:12.783Z,100.00
2023-01-20T19:52:39.231Z,100.00
2023-01-20T19:55:05.952Z,100.00
2023-01-20T19:57:32.385Z,100.00
2023-01-20T19:59:59.189Z,100.00
2023-01-20T20:02:27.402Z,100.00
2023-01-20T20:04:53.952Z,100.00
2023-01-20T20:07:20.412Z,100.00
2023-01-20T20:09:46.953Z,100.00
2023-01-20T20:12:13.515Z,100.00
2023-01-20T20:14:40.091Z,100.00
2023-01-20T20:17:06.496Z,100.00
2023-01-20T20:19:32.948Z,100.00
2023-01-20T20:21:59.664Z,100.00
2023-01-20T20:24:26.108Z,100.00
2023-01-20T20:26:52.621Z,100.00
2023-01-20T20:29:19.429Z,100.00
2023-01-20T20:31:46.819Z,100.00
2023-01-20T20:34:16.191Z,100.00
2023-01-20T20:36:43.026Z,100.00
2023-01-20T20:39:13.670Z,100.00
2023-01-20T20:41:40.286Z,100.00
2023-01-20T20:44:06.978Z,100.00
2023-01-20T20:46:33.557Z,100.00
2023-01-20T20:49:01.242Z,100.00
2023-01-20T20:51:33.533Z,100.00
2023-01-20T20:54:02.624Z,100.00
2023-01-20T20:56:33.003Z,100.00
2023-01-20T20:59:02.860Z,100.00
2023-01-20T21:01:32.779Z,100.00
2023-01-20T21:04:00.373Z,100.00
2023-01-20T21:06:27.073Z,100.00
2023-01-20T21:08:53.560Z,100.00
2023-01-20T21:11:20.711Z,100.00
2023-01-20T21:13:49.201Z,100.00
2023-01-20T21:16:20.677Z,100.00
2023-01-20T21:18:47.839Z,100.00
2023-01-20T21:21:16.980Z,100.00
2023-01-20T21:23:47.920Z,100.00
2023-01-20T21:26:14.393Z,100.00
2023-01-20T21:28:42.607Z,100.00
2023-01-20T21:31:10.987Z,100.00
2023-01-20T21:33:38.925Z,100.00
2023-01-20T21:36:07.206Z,100.00
2023-01-20T21:38:33.623Z,100.00
2023-01-20T21:41:09.784Z,100.00
2023-01-20T21:44:00.011Z,100.00
2023-01-20T21:46:32.724Z,100.00
2023-01-20T21:49:18.350Z,100.00
2023-01-20T21:52:03.397Z,100.00
2023-01-20T21:54:31.233Z,100.00
2023-01-20T21:56:58.917Z,100.00
2023-01-20T21:59:25.926Z,100.00
2023-01-20T22:01:53.075Z,100.00
2023-01-20T22:04:19.854Z,100.00
2023-01-20T22:06:46.327Z,100.00
2023-01-20T22:09:12.820Z,100.00
2023-01-20T22:11:39.271Z,100.00
2023-01-20T22:14:06.081Z,100.00
2023-01-20T22:16:32.618Z,100.00
2023-01-20T22:18:59.215Z,100.00
2023-01-20T22:21:26.270Z,100.00
2023-01-20T22:23:53.603Z,100.00
2023-01-20T22:26:20.580Z,100.00
2023-01-20T22:28:47.034Z,100.00
2023-01-20T22:31:23.793Z,100.00
2023-01-20T22:33:54.803Z,100.00
2023-01-20T22:36:22.779Z,100.00
2023-01-20T22:38:50.960Z,100.00
2023-01-20T22:41:18.560Z,100.00
2023-01-20T22:43:45.270Z,100.00
2023-01-20T22:46:13.709Z,100.00
2023-01-20T22:48:41.230Z,100.00
2023-01-20T22:51:10.606Z,100.00
2023-01-20T22:53:39.098Z,100.00
2023-01-20T22:56:14.844Z,100.00
2023-01-20T22:58:43.359Z,100.00
2023-01-20T23:01:18.901Z,100.00
2023-01-20T23:03:46.205Z,100.00
2023-01-20T23:06:14.084Z,100.00
2023-01-20T23:08:41.151Z,100.00
2023-01-20T23:11:11.258Z,100.00
2023-01-20T23:13:40.836Z,100.00
2023-01-20T23:16:10.423Z,100.00
2023-01-20T23:18:36.825Z,100.00
2023-01-20T23:21:05.758Z,100.00
2023-01-20T23:23:33.067Z,100.00
2023-01-20T23:26:04.040Z,100.00
2023-01-20T23:28:30.831Z,100.00
2023-01-20T23:31:05.671Z,100.00
2023-01-20T23:33:33.025Z,100.00
2023-01-20T23:36:08.489Z,100.00
2023-01-20T23:38:34.971Z,100.00
2023-01-20T23:41:02.348Z,100.00
2023-01-20T23:43:30.485Z,100.00
2023-01-20T23:45:58.724Z,100.00
2023-01-20T23:48:25.383Z,100.00
2023-01-20T23:50:52.227Z,100.00
2023-01-20T23:53:19.430Z,100.00
2023-01-20T23:55:46.010Z,100.00
2023-01-20T23:58:12.543Z,100.00
